Terminal Aerodrome Forecast
Issued by NWS

Home | Current Version | Previous Version | Text Only | Print | Product List | Glossary On
Versions: 1 2 3 4 5 6 7 8 9 10 11 12 13 14 15 16
927
FTUS44 KLIX 081732 AAA
TAFMSY
TAF AMD
KMSY 081732Z 0818/0918 02015G25KT P6SM SCT025 OVC040
     FM091300 03015G25KT P6SM SCT120=

USA.gov is the U.S. government's official web portal to all federal, state and local government web resources and services.